Abeokuta, Nigeria
Current Conditions -  °F | °C
As of 5:00 AM on Monday 20 Oct 2014 (Local Time) from DBBB Reporting Station
Broken Clouds Broken Clouds  
Wind Chill: 77°   Ceiling: 4000
Heat Index: 78°   Visibility: 5mi
Dew Point: 77°   Wind: 2mph
Humidity: 100%   Direction: 10°N
Pressure: 29.83"   Gusts: NA
Location:  7.16°N, 3.35°E
Report Text: DBBB 200400Z 01002KT 8000 SCT010 BKN040 25/25 Q1010 TEMPOBKN006
Loading
Personal Weather Stations






























Interactive Weather Map
Tropical Storm Tracking
New forecast layout! Learn more

10-Day Weather Forecast

Advertisements
Track Severe Weather on mobile